Miami, Florida
Current Conditions -  °F | °C
As of 8:53 AM on Monday 20 Oct 2014 (Local Time) from KMIA Reporting Station
Few Clouds Few Clouds  
Wind Chill: 80°   Ceiling: Unl
Heat Index: 82°   Visibility: 10mi
Dew Point: 65°   Wind: 3mph
Humidity: 60%   Direction: 80°E
Pressure: 30.02"   Gusts: NA
Location:  25.77°N, 80.19°W
Report Text: KMIA 201253Z 08003KT 10SM FEW040 27/18 A3002 RMK AO2 SLP165 T02670183
Loading
Personal Weather Stations






























Interactive Weather Map
Tropical Storm Tracking
New forecast layout! Learn more

10-Day Weather Forecast

Advertisements
Track Severe Weather on mobile